Aberchirder, United Kingdom
Current Conditions -  °F | °C
As of 8:50 AM on Sunday 26 Oct 2014 (Local Time) from EGQS Reporting Station
Broken Clouds Broken Clouds  
Wind Chill: 52°   Ceiling: 20000
Heat Index: 52°   Visibility: 6mi
Dew Point: 45°   Wind: 21mph
Humidity: 76%   Direction: 230°SW
Pressure: 29.44"   Gusts: NA
Location:  57.56°N, 2.63°W
Report Text: EGQS 260750Z 23018KT 9999 SCT030 SCT150 BKN200 11/07 Q0997 BLU
Loading
Personal Weather Stations






























Interactive Weather Map
Tropical Storm Tracking
New forecast layout! Learn more

10-Day Weather Forecast

Advertisements
Track Severe Weather on mobile